createdAt,value
2017-09-27T00:00:34.452Z,947.3
2017-09-27T00:01:42.537Z,947.3
2017-09-27T00:02:50.632Z,947.3
2017-09-27T00:03:58.721Z,947.3
2017-09-27T00:05:06.855Z,947.3
2017-09-27T00:06:14.888Z,947.3
2017-09-27T00:07:22.973Z,947.4
2017-09-27T00:08:31.059Z,947.3
2017-09-27T00:09:39.263Z,947.3
2017-09-27T00:10:47.290Z,947.3
2017-09-27T00:11:55.323Z,947.3
2017-09-27T00:13:03.409Z,947.3
2017-09-27T00:14:11.721Z,947.3
2017-09-27T00:15:19.582Z,947.3
2017-09-27T00:16:27.725Z,947.3
2017-09-27T00:17:35.759Z,947.3
2017-09-27T00:18:43.880Z,947.3
2017-09-27T00:19:51.935Z,947.3
2017-09-27T00:21:00.025Z,947.3
2017-09-27T00:22:08.238Z,947.3
2017-09-27T00:23:16.203Z,947.3
2017-09-27T00:24:24.318Z,947.4
2017-09-27T00:25:32.376Z,947.4
2017-09-27T00:26:40.464Z,947.4
2017-09-27T00:27:48.876Z,947.4
2017-09-27T00:28:56.783Z,947.4
2017-09-27T00:30:04.795Z,947.4
2017-09-27T00:31:12.836Z,947.3
2017-09-27T00:32:21.107Z,947.3
2017-09-27T00:33:29.055Z,947.3
2017-09-27T00:34:37.098Z,947.3
2017-09-27T00:35:45.177Z,947.3
2017-09-27T00:36:53.435Z,947.3
2017-09-27T00:38:01.376Z,947.3
2017-09-27T00:39:09.571Z,947.3
2017-09-27T00:40:17.538Z,947.3
2017-09-27T00:41:25.626Z,947.3
2017-09-27T00:42:33.797Z,947.2
2017-09-27T00:43:41.810Z,947.2
2017-09-27T00:44:49.947Z,947.2
2017-09-27T00:45:58.096Z,947.2
2017-09-27T00:47:06.156Z,947.2
2017-09-27T00:48:14.154Z,947.3
2017-09-27T00:49:22.246Z,947.2
2017-09-27T00:50:30.453Z,947.3
2017-09-27T00:51:38.492Z,947.2
2017-09-27T00:52:46.544Z,947.3
2017-09-27T00:53:54.602Z,947.2
2017-09-27T00:55:02.698Z,947.2
2017-09-27T00:56:10.854Z,947.2
2017-09-27T00:57:18.886Z,947.2
2017-09-27T00:58:26.973Z,947.2
2017-09-27T00:59:35.079Z,947.2
2017-09-27T01:00:43.156Z,947.2
2017-09-27T01:01:51.302Z,947.2
2017-09-27T01:02:59.339Z,947.2
2017-09-27T01:04:07.427Z,947.2
2017-09-27T01:05:15.546Z,947.2
2017-09-27T01:06:23.604Z,947.2
2017-09-27T01:07:31.857Z,947.2
2017-09-27T01:08:39.789Z,947.2
2017-09-27T01:09:47.867Z,947.2
2017-09-27T01:10:55.955Z,947.2
2017-09-27T01:12:04.062Z,947.2
2017-09-27T01:13:12.192Z,947.2
2017-09-27T01:14:20.338Z,947.2
2017-09-27T01:15:28.317Z,947.2
2017-09-27T01:16:36.403Z,947.2
2017-09-27T01:17:44.562Z,947.2
2017-09-27T01:18:52.709Z,947.2
2017-09-27T01:20:00.670Z,947.2
2017-09-27T01:21:08.769Z,947.1
2017-09-27T01:22:16.851Z,947.1
2017-09-27T01:23:24.944Z,947.2
2017-09-27T01:24:33.081Z,947.2
2017-09-27T01:25:41.141Z,947.2
2017-09-27T01:26:49.210Z,947.2
2017-09-27T01:27:57.289Z,947.2
2017-09-27T01:29:05.379Z,947.2
2017-09-27T01:30:13.522Z,947.1
2017-09-27T01:31:21.553Z,947.1
2017-09-27T01:32:29.803Z,947.1
2017-09-27T01:33:37.849Z,947.1
2017-09-27T01:34:45.816Z,947.1
2017-09-27T01:35:53.961Z,947.1
2017-09-27T01:37:02.008Z,947.0
2017-09-27T01:38:10.076Z,947.0
2017-09-27T01:39:18.169Z,947.0
2017-09-27T01:40:26.261Z,947.0
2017-09-27T01:41:34.571Z,947.0
2017-09-27T01:42:42.580Z,947.1
2017-09-27T01:43:50.525Z,947.0
2017-09-27T01:44:58.622Z,947.0
2017-09-27T01:46:06.864Z,947.0
2017-09-27T01:47:14.857Z,947.0
2017-09-27T01:48:22.892Z,947.0
2017-09-27T01:49:31.096Z,947.0
2017-09-27T01:50:39.223Z,947.0
2017-09-27T01:51:47.167Z,947.0
2017-09-27T01:52:55.312Z,947.0
2017-09-27T01:54:03.344Z,947.1
2017-09-27T01:55:11.562Z,947.1
2017-09-27T01:56:19.518Z,947.1
2017-09-27T01:57:27.606Z,947.1
2017-09-27T01:58:35.751Z,947.1
2017-09-27T01:59:43.784Z,947.1
2017-09-27T02:00:51.871Z,947.1
2017-09-27T02:01:59.959Z,947.1
2017-09-27T02:03:08.047Z,947.1
2017-09-27T02:04:16.256Z,947.1
2017-09-27T02:05:24.283Z,947.0
2017-09-27T02:06:32.314Z,947.1
2017-09-27T02:07:40.402Z,947.0
2017-09-27T02:08:48.495Z,947.0
2017-09-27T02:09:56.631Z,947.1
2017-09-27T02:11:04.663Z,947.1
2017-09-27T02:12:12.748Z,947.1
2017-09-27T02:13:20.939Z,947.1
2017-09-27T02:14:28.924Z,947.1
2017-09-27T02:15:37.071Z,947.1
2017-09-27T02:16:45.102Z,947.1
2017-09-27T02:17:53.339Z,947.1
2017-09-27T02:19:01.309Z,947.1
2017-09-27T02:20:09.368Z,947.1
2017-09-27T02:21:17.585Z,947.1
2017-09-27T02:22:25.541Z,947.1
2017-09-27T02:23:33.661Z,947.1
2017-09-27T02:24:41.715Z,947.1
2017-09-27T02:25:49.803Z,947.1
2017-09-27T02:26:57.948Z,947.1
2017-09-27T02:28:05.992Z,947.1
2017-09-27T02:29:14.081Z,947.1
2017-09-27T02:30:22.169Z,947.0
2017-09-27T02:31:30.258Z,947.0
2017-09-27T02:32:38.406Z,947.0
2017-09-27T02:33:46.440Z,947.0
2017-09-27T02:34:54.528Z,947.0
2017-09-27T02:36:02.616Z,947.0
2017-09-27T02:37:10.933Z,947.0
2017-09-27T02:38:18.847Z,947.0
2017-09-27T02:39:26.906Z,947.0
2017-09-27T02:40:34.976Z,947.0
2017-09-27T02:41:43.139Z,947.0
2017-09-27T02:42:51.151Z,947.0
2017-09-27T02:43:59.288Z,947.0
2017-09-27T02:45:07.318Z,947.0
2017-09-27T02:46:15.481Z,947.0
2017-09-27T02:47:23.492Z,947.0
2017-09-27T02:48:31.582Z,947.0
2017-09-27T02:49:39.796Z,947.0
2017-09-27T02:50:47.755Z,947.0
2017-09-27T02:51:55.846Z,947.1
2017-09-27T02:53:04.000Z,947.0
2017-09-27T02:54:12.029Z,947.1
2017-09-27T02:55:20.172Z,947.1
2017-09-27T02:56:28.202Z,947.0
2017-09-27T02:57:36.291Z,947.0
2017-09-27T02:58:44.382Z,947.0
2017-09-27T02:59:52.537Z,947.0
2017-09-27T03:01:00.682Z,947.0
2017-09-27T03:02:08.651Z,947.0
2017-09-27T03:03:16.733Z,947.0
2017-09-27T03:04:24.829Z,947.0
2017-09-27T03:05:32.909Z,947.0
2017-09-27T03:06:41.054Z,947.0
2017-09-27T03:07:49.120Z,947.0
2017-09-27T03:08:57.240Z,947.0
2017-09-27T03:10:05.271Z,947.0
2017-09-27T03:11:13.363Z,947.0
2017-09-27T03:12:21.508Z,947.0
2017-09-27T03:13:29.542Z,947.0
2017-09-27T03:14:37.619Z,947.0
2017-09-27T03:15:45.714Z,947.0
2017-09-27T03:16:53.795Z,947.0
2017-09-27T03:18:02.005Z,947.0
2017-09-27T03:19:09.979Z,947.0
2017-09-27T03:20:18.058Z,947.0
2017-09-27T03:21:26.146Z,947.0
2017-09-27T03:22:34.235Z,947.0
2017-09-27T03:23:42.444Z,947.0
2017-09-27T03:24:50.465Z,947.0
2017-09-27T03:25:58.497Z,947.0
2017-09-27T03:27:06.585Z,947.0
2017-09-27T03:28:14.674Z,947.0
2017-09-27T03:29:22.817Z,947.0
2017-09-27T03:30:30.849Z,947.0
2017-09-27T03:31:39.113Z,947.0
2017-09-27T03:32:47.024Z,947.0
2017-09-27T03:33:55.121Z,947.0
2017-09-27T03:35:03.256Z,947.0
2017-09-27T03:36:11.471Z,947.0
2017-09-27T03:37:19.375Z,947.0
2017-09-27T03:38:27.462Z,947.0
2017-09-27T03:39:35.576Z,947.1
2017-09-27T03:40:43.862Z,947.1
2017-09-27T03:41:51.870Z,947.0
2017-09-27T03:42:59.830Z,947.1
2017-09-27T03:44:07.911Z,947.1
2017-09-27T03:45:16.012Z,947.1
2017-09-27T03:46:24.215Z,947.1
2017-09-27T03:47:32.181Z,947.1
2017-09-27T03:48:40.279Z,947.1
2017-09-27T03:49:48.515Z,947.1
2017-09-27T03:50:56.450Z,947.1
2017-09-27T03:52:04.589Z,947.1
2017-09-27T03:53:12.622Z,947.1
2017-09-27T03:54:20.859Z,947.1
2017-09-27T03:55:28.804Z,947.1
2017-09-27T03:56:37.052Z,947.0
2017-09-27T03:57:45.028Z,947.0
2017-09-27T03:58:53.068Z,947.0
2017-09-27T04:00:01.227Z,947.1
2017-09-27T04:00:01.261Z,947.1
2017-09-27T04:01:09.249Z,947.1
2017-09-27T04:02:17.328Z,947.1
2017-09-27T04:03:25.474Z,947.1
2017-09-27T04:04:33.572Z,947.1
2017-09-27T04:05:41.596Z,947.1
2017-09-27T04:06:49.687Z,947.1
2017-09-27T04:07:57.763Z,947.1
2017-09-27T04:09:05.916Z,947.1
2017-09-27T04:10:13.949Z,947.1
2017-09-27T04:11:22.035Z,947.1
2017-09-27T04:12:30.316Z,947.1
2017-09-27T04:13:38.230Z,947.1
2017-09-27T04:14:46.360Z,947.1
2017-09-27T04:15:54.384Z,947.2
2017-09-27T04:17:02.469Z,947.2
2017-09-27T04:18:10.557Z,947.1
2017-09-27T04:19:18.645Z,947.2
2017-09-27T04:20:26.856Z,947.2
2017-09-27T04:21:34.824Z,947.2
2017-09-27T04:22:42.918Z,947.2
2017-09-27T04:23:50.997Z,947.2
2017-09-27T04:24:59.086Z,947.2
2017-09-27T04:26:07.282Z,947.2
2017-09-27T04:27:15.331Z,947.2
2017-09-27T04:28:23.461Z,947.1
2017-09-27T04:29:31.498Z,947.2
2017-09-27T04:30:39.577Z,947.1
2017-09-27T04:31:47.822Z,947.1
2017-09-27T04:32:55.760Z,947.1
2017-09-27T04:34:03.842Z,947.1
2017-09-27T04:35:11.931Z,947.1
2017-09-27T04:36:20.017Z,947.1
2017-09-27T04:37:28.163Z,947.1
2017-09-27T04:38:36.191Z,947.1
2017-09-27T04:39:44.278Z,947.1
2017-09-27T04:40:52.457Z,947.1
2017-09-27T04:42:00.451Z,947.1
2017-09-27T04:43:08.658Z,947.1
2017-09-27T04:44:16.685Z,947.1
2017-09-27T04:45:24.970Z,947.1
2017-09-27T04:46:32.804Z,947.1
2017-09-27T04:47:41.084Z,947.1
2017-09-27T04:48:49.558Z,947.1
2017-09-27T04:49:57.207Z,947.1
2017-09-27T04:51:05.152Z,947.1
2017-09-27T04:52:13.247Z,947.1
2017-09-27T04:53:21.326Z,947.0
2017-09-27T04:54:29.910Z,947.0
2017-09-27T04:55:37.986Z,947.0
2017-09-27T04:56:45.770Z,947.0
2017-09-27T04:57:53.985Z,947.1
2017-09-27T04:59:03.308Z,947.1
2017-09-27T05:00:09.980Z,947.1
2017-09-27T05:01:17.966Z,947.1
2017-09-27T05:02:26.057Z,947.1
2017-09-27T05:03:34.328Z,947.1
2017-09-27T05:04:42.220Z,947.1
2017-09-27T05:05:56.807Z,947.1
2017-09-27T05:07:04.541Z,947.1
2017-09-27T05:08:13.202Z,947.1
2017-09-27T05:09:20.689Z,947.1
2017-09-27T05:10:29.017Z,947.1
2017-09-27T05:11:36.984Z,947.1
2017-09-27T05:12:44.960Z,947.1
2017-09-27T05:13:53.049Z,947.1
2017-09-27T05:15:01.410Z,947.1
2017-09-27T05:16:09.270Z,947.1
2017-09-27T05:17:17.359Z,947.2
2017-09-27T05:18:25.408Z,947.2
2017-09-27T05:19:33.648Z,947.2
2017-09-27T05:20:41.572Z,947.2
2017-09-27T05:21:49.663Z,947.2
2017-09-27T05:22:57.817Z,947.2
2017-09-27T05:24:05.847Z,947.2
2017-09-27T05:25:13.934Z,947.2
2017-09-27T05:26:22.020Z,947.2
2017-09-27T05:28:43.038Z,947.3
2017-09-27T05:29:51.015Z,947.3
2017-09-27T05:30:59.092Z,947.3
2017-09-27T05:32:07.237Z,947.4
2017-09-27T05:33:15.267Z,947.3
2017-09-27T05:34:23.475Z,947.4
2017-09-27T05:35:31.492Z,947.4
2017-09-27T05:36:39.758Z,947.4
2017-09-27T05:37:47.668Z,947.4
2017-09-27T05:38:55.753Z,947.4
2017-09-27T05:40:04.082Z,947.4
2017-09-27T05:41:11.932Z,947.4
2017-09-27T05:42:20.019Z,947.4
2017-09-27T05:43:28.111Z,947.5
2017-09-27T05:44:36.205Z,947.5
2017-09-27T05:45:44.338Z,947.5
2017-09-27T05:46:52.371Z,947.5
2017-09-27T05:48:00.511Z,947.5
2017-09-27T05:49:08.544Z,947.4
2017-09-27T05:50:16.642Z,947.5
2017-09-27T05:51:24.844Z,947.4
2017-09-27T05:52:32.813Z,947.5
2017-09-27T05:53:41.085Z,947.5
2017-09-27T05:54:48.996Z,947.5
2017-09-27T05:55:57.385Z,947.5
2017-09-27T05:57:05.920Z,947.5
2017-09-27T05:58:13.611Z,947.5
2017-09-27T05:59:21.486Z,947.6
2017-09-27T06:00:29.823Z,947.6
2017-09-27T06:01:37.742Z,947.6
2017-09-27T06:02:46.665Z,947.6
2017-09-27T06:03:53.746Z,947.6
2017-09-27T06:05:02.186Z,947.6
2017-09-27T06:06:09.884Z,947.6
2017-09-27T06:07:17.943Z,947.6
2017-09-27T06:08:29.232Z,947.6
2017-09-27T06:09:34.707Z,947.6
2017-09-27T06:10:42.522Z,947.7
2017-09-27T06:11:50.634Z,947.7
2017-09-27T06:12:58.917Z,947.7
2017-09-27T06:14:07.484Z,947.7
2017-09-27T06:15:14.958Z,947.7
2017-09-27T06:16:23.142Z,947.7
2017-09-27T06:17:31.463Z,947.7
2017-09-27T06:18:39.263Z,947.8
2017-09-27T06:19:49.034Z,947.8
2017-09-27T06:20:55.515Z,947.8
2017-09-27T06:22:03.808Z,947.8
2017-09-27T06:23:11.746Z,947.8
2017-09-27T06:24:19.635Z,947.8
2017-09-27T06:25:28.255Z,947.8
2017-09-27T06:26:35.715Z,947.8
2017-09-27T06:27:43.964Z,947.8
2017-09-27T06:28:52.061Z,947.8
2017-09-27T06:30:00.026Z,947.8
2017-09-27T06:31:08.809Z,947.8
2017-09-27T06:32:16.081Z,947.8
2017-09-27T06:33:24.183Z,947.9
2017-09-27T06:34:32.577Z,947.8
2017-09-27T06:35:40.990Z,947.8
2017-09-27T06:36:48.593Z,947.9
2017-09-27T06:37:56.553Z,947.8
2017-09-27T06:39:04.451Z,947.9
2017-09-27T06:40:13.042Z,947.9
2017-09-27T06:41:21.067Z,947.8
2017-09-27T06:42:30.578Z,947.9
2017-09-27T06:43:37.106Z,947.9
2017-09-27T06:44:44.993Z,947.9
2017-09-27T06:45:53.181Z,947.9
2017-09-27T06:47:01.420Z,947.9
2017-09-27T06:48:09.812Z,947.9
2017-09-27T06:49:17.661Z,947.9
2017-09-27T06:50:25.539Z,947.9
2017-09-27T06:51:33.446Z,947.9
2017-09-27T06:52:41.479Z,948.0
2017-09-27T06:53:50.404Z,948.0
2017-09-27T06:54:57.901Z,948.0
2017-09-27T06:56:05.736Z,948.0
2017-09-27T06:57:13.824Z,948.0
2017-09-27T06:58:21.907Z,948.0
2017-09-27T06:59:30.113Z,948.0
2017-09-27T07:00:38.117Z,948.0
2017-09-27T07:01:46.168Z,948.0
2017-09-27T07:02:54.255Z,948.0
2017-09-27T07:04:02.347Z,948.0
2017-09-27T07:05:10.486Z,948.0
2017-09-27T07:06:18.513Z,948.0
2017-09-27T07:07:26.721Z,948.0
2017-09-27T07:08:34.689Z,948.0
2017-09-27T07:09:42.773Z,948.0
2017-09-27T07:10:50.918Z,948.0
2017-09-27T07:11:58.948Z,948.0
2017-09-27T07:13:07.036Z,948.0
2017-09-27T07:14:15.122Z,948.0
2017-09-27T07:15:23.209Z,948.0
2017-09-27T07:16:31.415Z,948.0
2017-09-27T07:17:39.381Z,948.1
2017-09-27T07:18:47.475Z,948.1
2017-09-27T07:19:55.563Z,948.1
2017-09-27T07:21:03.642Z,948.1
2017-09-27T07:22:11.792Z,948.1
2017-09-27T07:23:19.945Z,948.1
2017-09-27T07:24:27.902Z,948.1
2017-09-27T07:25:35.987Z,948.1
2017-09-27T07:26:44.075Z,948.1
2017-09-27T07:27:52.217Z,948.1
2017-09-27T07:29:00.247Z,948.2
2017-09-27T07:30:08.333Z,948.1
2017-09-27T07:31:16.420Z,948.2
2017-09-27T07:32:24.507Z,948.2
2017-09-27T07:33:32.715Z,948.2
2017-09-27T07:34:40.682Z,948.2
2017-09-27T07:35:48.819Z,948.2
2017-09-27T07:36:56.851Z,948.2
2017-09-27T07:38:04.939Z,948.2
2017-09-27T07:39:13.080Z,948.2
2017-09-27T07:40:21.109Z,948.3
2017-09-27T07:41:29.198Z,948.3
2017-09-27T07:42:37.284Z,948.3
2017-09-27T07:43:45.373Z,948.3
2017-09-27T07:44:53.703Z,948.3
2017-09-27T07:46:01.543Z,948.4
2017-09-27T07:47:09.628Z,948.4
2017-09-27T07:48:17.714Z,948.4
2017-09-27T07:49:25.910Z,948.4
2017-09-27T07:50:33.943Z,948.4
2017-09-27T07:51:41.974Z,948.5
2017-09-27T07:52:50.060Z,948.4
2017-09-27T07:53:58.259Z,948.5
2017-09-27T07:55:06.638Z,948.4
2017-09-27T07:56:14.372Z,948.4
2017-09-27T07:57:22.570Z,948.4
2017-09-27T07:58:30.594Z,948.4
2017-09-27T07:59:39.229Z,948.4
2017-09-27T08:00:46.663Z,948.3
2017-09-27T08:01:54.809Z,948.3
2017-09-27T08:03:02.836Z,948.3
2017-09-27T08:04:10.923Z,948.3
2017-09-27T08:05:19.007Z,948.3
2017-09-27T08:06:27.098Z,948.3
2017-09-27T08:07:35.235Z,948.3
2017-09-27T08:08:43.265Z,948.3
2017-09-27T08:09:51.357Z,948.3
2017-09-27T08:10:59.884Z,948.3
2017-09-27T08:12:07.530Z,948.3
2017-09-27T08:13:15.678Z,948.2
2017-09-27T08:14:23.704Z,948.3
2017-09-27T08:15:31.788Z,948.3
2017-09-27T08:16:39.872Z,948.2
2017-09-27T08:17:47.961Z,948.2
2017-09-27T08:18:56.167Z,948.3
2017-09-27T08:20:04.134Z,948.2
2017-09-27T08:21:12.335Z,948.3
2017-09-27T08:22:20.308Z,948.3
2017-09-27T08:23:28.394Z,948.3
2017-09-27T08:24:36.536Z,948.3
2017-09-27T08:25:44.661Z,948.3
2017-09-27T08:26:52.709Z,948.4
2017-09-27T08:28:00.739Z,948.3
2017-09-27T08:29:08.826Z,948.3
2017-09-27T08:30:16.978Z,948.3
2017-09-27T08:31:25.052Z,948.3
2017-09-27T08:32:33.085Z,948.3
2017-09-27T08:33:41.174Z,948.3
2017-09-27T08:34:49.259Z,948.4
2017-09-27T08:35:57.542Z,948.4
2017-09-27T08:37:05.437Z,948.4
2017-09-27T08:38:13.524Z,948.4
2017-09-27T08:39:21.750Z,948.4
2017-09-27T08:40:29.766Z,948.4
2017-09-27T08:41:37.840Z,948.3
2017-09-27T08:42:45.924Z,948.3
2017-09-27T08:43:53.952Z,948.3
2017-09-27T08:45:02.095Z,948.4
2017-09-27T08:46:10.212Z,948.3
2017-09-27T08:47:18.372Z,948.3
2017-09-27T08:48:26.401Z,948.3
2017-09-27T08:49:34.495Z,948.3
2017-09-27T08:50:42.574Z,948.3
2017-09-27T08:51:50.670Z,948.3
2017-09-27T08:52:58.868Z,948.3
2017-09-27T08:54:06.887Z,948.3
2017-09-27T08:55:14.919Z,948.3
2017-09-27T08:56:23.010Z,948.3
2017-09-27T08:57:31.090Z,948.3
2017-09-27T08:58:39.249Z,948.3
2017-09-27T08:59:47.310Z,948.3
2017-09-27T09:00:55.359Z,948.2
2017-09-27T09:02:03.448Z,948.3
2017-09-27T09:03:11.536Z,948.3
2017-09-27T09:04:19.677Z,948.3
2017-09-27T09:05:27.712Z,948.3
2017-09-27T09:06:35.791Z,948.3
2017-09-27T09:07:43.923Z,948.3
2017-09-27T09:08:51.966Z,948.3
2017-09-27T09:10:00.111Z,948.3
2017-09-27T09:11:08.145Z,948.3
2017-09-27T09:12:16.232Z,948.2
2017-09-27T09:13:24.320Z,948.2
2017-09-27T09:14:32.465Z,948.2
2017-09-27T09:15:40.611Z,948.3
2017-09-27T09:16:48.704Z,948.3
2017-09-27T09:17:56.666Z,948.3
2017-09-27T09:19:04.757Z,948.3
2017-09-27T09:20:12.840Z,948.3
2017-09-27T09:21:21.044Z,948.3
2017-09-27T09:22:29.014Z,948.3
2017-09-27T09:23:37.100Z,948.3
2017-09-27T09:24:45.188Z,948.3
2017-09-27T09:25:53.270Z,948.3
2017-09-27T09:27:01.417Z,948.3
2017-09-27T09:28:09.456Z,948.3
2017-09-27T09:29:17.555Z,948.2
2017-09-27T09:30:25.809Z,948.3
2017-09-27T09:31:33.729Z,948.3
2017-09-27T09:32:41.945Z,948.3
2017-09-27T09:33:49.911Z,948.3
2017-09-27T09:34:58.001Z,948.3
2017-09-27T09:36:06.083Z,948.3
2017-09-27T09:37:14.172Z,948.3
2017-09-27T09:38:22.377Z,948.3
2017-09-27T09:39:30.342Z,948.3
2017-09-27T09:40:38.442Z,948.3
2017-09-27T09:41:46.518Z,948.3
2017-09-27T09:42:54.604Z,948.3
2017-09-27T09:44:02.913Z,948.3
2017-09-27T09:45:10.780Z,948.3
2017-09-27T09:46:18.984Z,948.3
2017-09-27T09:47:26.950Z,948.3
2017-09-27T09:48:35.116Z,948.3
2017-09-27T09:49:43.182Z,948.3
2017-09-27T09:50:51.214Z,948.3
2017-09-27T09:51:59.301Z,948.3
2017-09-27T09:53:07.564Z,948.3
2017-09-27T09:54:15.599Z,948.3
2017-09-27T09:55:23.682Z,948.2
2017-09-27T09:56:31.654Z,948.3
2017-09-27T09:57:39.910Z,948.3
2017-09-27T09:58:47.827Z,948.3
2017-09-27T09:59:55.914Z,948.3
2017-09-27T10:01:04.058Z,948.3
2017-09-27T10:02:12.383Z,948.2
2017-09-27T10:03:20.175Z,948.2
2017-09-27T10:04:28.258Z,948.3
2017-09-27T10:05:36.346Z,948.2
2017-09-27T10:06:44.650Z,948.2
2017-09-27T10:07:52.529Z,948.2
2017-09-27T10:09:00.610Z,948.2
2017-09-27T10:10:08.695Z,948.2
2017-09-27T10:11:16.783Z,948.2
2017-09-27T10:12:24.990Z,948.2
2017-09-27T10:13:33.495Z,948.2
2017-09-27T10:14:41.047Z,948.2
2017-09-27T10:15:49.130Z,948.2
2017-09-27T10:16:57.286Z,948.2
2017-09-27T10:18:05.422Z,948.2
2017-09-27T10:19:13.481Z,948.2
2017-09-27T10:20:21.570Z,948.2
2017-09-27T10:21:29.710Z,948.2
2017-09-27T10:22:37.740Z,948.1
2017-09-27T10:23:45.881Z,948.2
2017-09-27T10:24:54.100Z,948.2
2017-09-27T10:26:01.999Z,948.2
2017-09-27T10:27:10.088Z,948.2
2017-09-27T10:28:18.173Z,948.2
2017-09-27T10:29:26.385Z,948.2
2017-09-27T10:30:34.345Z,948.2
2017-09-27T10:31:42.434Z,948.2
2017-09-27T10:32:50.517Z,948.2
2017-09-27T10:33:58.661Z,948.2
2017-09-27T10:35:06.812Z,948.2
2017-09-27T10:36:14.779Z,948.2
2017-09-27T10:37:22.871Z,948.2
2017-09-27T10:38:30.954Z,948.2
2017-09-27T10:39:39.040Z,948.2
2017-09-27T10:40:47.183Z,948.3
2017-09-27T10:41:55.212Z,948.2
2017-09-27T10:43:03.301Z,948.2
2017-09-27T10:44:11.394Z,948.2
2017-09-27T10:45:19.479Z,948.3
2017-09-27T10:46:27.625Z,948.2
2017-09-27T10:47:35.793Z,948.2
2017-09-27T10:48:43.740Z,948.3
2017-09-27T10:49:51.951Z,948.3
2017-09-27T10:50:59.980Z,948.3
2017-09-27T10:52:08.154Z,948.3
2017-09-27T10:53:16.164Z,948.3
2017-09-27T10:54:24.318Z,948.3
2017-09-27T10:55:32.263Z,948.2
2017-09-27T10:56:40.361Z,948.3
2017-09-27T10:57:48.541Z,948.3
2017-09-27T10:58:56.533Z,948.3
2017-09-27T11:00:04.702Z,948.2
2017-09-27T11:01:12.708Z,948.2
2017-09-27T11:02:21.064Z,948.2
2017-09-27T11:03:29.234Z,948.2
2017-09-27T11:04:37.241Z,948.2
2017-09-27T11:05:45.429Z,948.2
2017-09-27T11:06:53.427Z,948.3
2017-09-27T11:08:01.576Z,948.2
2017-09-27T11:09:09.713Z,948.2
2017-09-27T11:10:17.682Z,948.2
2017-09-27T11:11:25.774Z,948.2
2017-09-27T11:12:33.859Z,948.2
2017-09-27T11:13:41.942Z,948.1
2017-09-27T11:14:50.085Z,948.2
2017-09-27T11:15:58.148Z,948.2
2017-09-27T11:17:06.235Z,948.2
2017-09-27T11:18:14.320Z,948.2
2017-09-27T11:19:22.409Z,948.2
2017-09-27T11:20:30.552Z,948.2
2017-09-27T11:21:38.703Z,948.2
2017-09-27T11:22:46.671Z,948.2
2017-09-27T11:23:54.768Z,948.2
2017-09-27T11:25:02.844Z,948.1
2017-09-27T11:26:10.995Z,948.2
2017-09-27T11:27:19.027Z,948.1
2017-09-27T11:28:27.116Z,948.1
2017-09-27T11:29:35.200Z,948.2
2017-09-27T11:30:43.291Z,948.2
2017-09-27T11:31:51.433Z,948.1
2017-09-27T11:32:59.530Z,948.1
2017-09-27T11:34:07.549Z,948.1
2017-09-27T11:35:15.635Z,948.1
2017-09-27T11:36:23.723Z,948.1
2017-09-27T11:37:32.098Z,948.0
2017-09-27T11:38:39.906Z,948.0
2017-09-27T11:39:47.994Z,948.0
2017-09-27T11:40:56.078Z,948.0
2017-09-27T11:42:04.180Z,948.0
2017-09-27T11:43:12.487Z,948.0
2017-09-27T11:44:20.451Z,948.0
2017-09-27T11:45:28.631Z,948.0
2017-09-27T11:46:36.632Z,947.9
2017-09-27T11:47:44.721Z,947.9
2017-09-27T11:48:52.929Z,947.9
2017-09-27T11:50:00.965Z,947.8
2017-09-27T11:51:08.992Z,947.9
2017-09-27T11:52:17.078Z,947.8
2017-09-27T11:53:25.226Z,947.8
2017-09-27T11:54:33.310Z,947.8
2017-09-27T11:55:41.343Z,947.8
2017-09-27T11:56:49.427Z,947.8
2017-09-27T11:57:57.522Z,947.8
2017-09-27T11:59:05.610Z,947.8
2017-09-27T12:00:13.829Z,947.8
2017-09-27T12:01:21.805Z,947.8
2017-09-27T12:02:29.884Z,947.8
2017-09-27T12:03:37.977Z,947.8
2017-09-27T12:04:46.063Z,947.8
2017-09-27T12:05:54.205Z,947.7
2017-09-27T12:07:02.240Z,947.7
2017-09-27T12:08:10.358Z,947.7
2017-09-27T12:09:18.541Z,947.7
2017-09-27T12:10:26.512Z,947.7
2017-09-27T12:11:34.655Z,947.7
2017-09-27T12:12:42.685Z,947.7
2017-09-27T12:13:50.809Z,947.6
2017-09-27T12:14:58.857Z,947.7
2017-09-27T12:16:06.947Z,947.7
2017-09-27T12:17:15.088Z,947.7
2017-09-27T12:18:23.122Z,947.7
2017-09-27T12:19:31.208Z,947.7
2017-09-27T12:20:39.294Z,947.7
2017-09-27T12:21:47.432Z,947.6
2017-09-27T12:22:55.704Z,947.7
2017-09-27T12:24:03.603Z,947.7
2017-09-27T12:25:11.746Z,947.7
2017-09-27T12:26:19.777Z,947.6
2017-09-27T12:27:27.872Z,947.7
2017-09-27T12:28:36.014Z,947.7
2017-09-27T12:29:44.054Z,947.7
2017-09-27T12:30:52.323Z,947.7
2017-09-27T12:32:00.228Z,947.7
2017-09-27T12:33:08.318Z,947.7
2017-09-27T12:34:16.524Z,947.6
2017-09-27T12:35:24.493Z,947.7
2017-09-27T12:36:33.297Z,947.7
2017-09-27T12:37:41.051Z,947.7
2017-09-27T12:38:48.751Z,947.7
2017-09-27T12:39:56.897Z,947.7
2017-09-27T12:41:05.049Z,947.6
2017-09-27T12:42:13.014Z,947.6
2017-09-27T12:43:21.102Z,947.6
2017-09-27T12:44:29.373Z,947.6
2017-09-27T12:45:37.440Z,947.6
2017-09-27T12:46:45.437Z,947.6
2017-09-27T12:47:53.448Z,947.6
2017-09-27T12:49:01.537Z,947.5
2017-09-27T12:50:09.728Z,947.5
2017-09-27T12:51:17.831Z,947.5
2017-09-27T12:52:25.816Z,947.5
2017-09-27T12:53:33.884Z,947.5
2017-09-27T12:54:41.976Z,947.5
2017-09-27T12:55:50.064Z,947.5
2017-09-27T12:56:58.280Z,947.5
2017-09-27T12:58:06.230Z,947.5
2017-09-27T12:59:14.320Z,947.5
2017-09-27T13:00:22.405Z,947.5
2017-09-27T13:01:30.493Z,947.5
2017-09-27T13:02:38.634Z,947.5
2017-09-27T13:03:46.667Z,947.5
2017-09-27T13:04:54.801Z,947.5
2017-09-27T13:06:02.864Z,947.5
2017-09-27T13:07:10.953Z,947.5
2017-09-27T13:08:19.160Z,947.5
2017-09-27T13:09:27.227Z,947.5
2017-09-27T13:10:35.212Z,947.5
2017-09-27T13:11:43.298Z,947.4
2017-09-27T13:12:51.508Z,947.4
2017-09-27T13:13:59.594Z,947.5
2017-09-27T13:15:07.559Z,947.5
2017-09-27T13:16:15.645Z,947.5
2017-09-27T13:17:23.815Z,947.5
2017-09-27T13:18:31.820Z,947.5
2017-09-27T13:19:39.964Z,947.5
2017-09-27T13:20:47.994Z,947.5
2017-09-27T13:21:56.080Z,947.4
2017-09-27T13:23:04.171Z,947.5
2017-09-27T13:24:12.258Z,947.5
2017-09-27T13:25:20.461Z,947.5
2017-09-27T13:26:28.429Z,947.5
2017-09-27T13:27:36.595Z,947.6
2017-09-27T13:28:44.659Z,947.5
2017-09-27T13:29:52.690Z,947.5
2017-09-27T13:31:00.949Z,947.5
2017-09-27T13:32:08.865Z,947.5
2017-09-27T13:33:16.950Z,947.4
2017-09-27T13:34:25.038Z,947.5
2017-09-27T13:35:33.282Z,947.4
2017-09-27T13:36:41.273Z,947.4
2017-09-27T13:37:49.334Z,947.5
2017-09-27T13:38:57.395Z,947.4
2017-09-27T13:40:05.605Z,947.4
2017-09-27T13:41:13.692Z,947.4
2017-09-27T13:42:21.836Z,947.4
2017-09-27T13:43:29.867Z,947.4
2017-09-27T13:44:38.073Z,947.4
2017-09-27T13:45:46.042Z,947.4
2017-09-27T13:46:54.132Z,947.4
2017-09-27T13:48:02.271Z,947.4
2017-09-27T13:49:10.299Z,947.4
2017-09-27T13:50:18.384Z,947.4
2017-09-27T13:51:26.473Z,947.4
2017-09-27T13:52:34.560Z,947.4
2017-09-27T13:53:42.875Z,947.4
2017-09-27T13:54:50.865Z,947.4
2017-09-27T13:55:58.822Z,947.4
2017-09-27T13:57:06.909Z,947.4
2017-09-27T13:58:14.993Z,947.4
2017-09-27T13:59:23.138Z,947.4
2017-09-27T14:00:31.292Z,947.4
2017-09-27T14:01:39.266Z,947.4
2017-09-27T14:02:47.509Z,947.4
2017-09-27T14:03:55.441Z,947.3
2017-09-27T14:05:03.653Z,947.4
2017-09-27T14:06:11.619Z,947.3
2017-09-27T14:07:19.865Z,947.3
2017-09-27T14:08:27.787Z,947.3
2017-09-27T14:09:35.873Z,947.3
2017-09-27T14:10:44.016Z,947.4
2017-09-27T14:11:52.048Z,947.3
2017-09-27T14:13:00.142Z,947.3
2017-09-27T14:14:08.233Z,947.3
2017-09-27T14:15:16.321Z,947.3
2017-09-27T14:16:24.530Z,947.3
2017-09-27T14:17:32.676Z,947.3
2017-09-27T14:18:40.580Z,947.3
2017-09-27T14:19:48.669Z,947.3
2017-09-27T14:20:56.755Z,947.2
2017-09-27T14:22:04.964Z,947.3
2017-09-27T14:23:12.942Z,947.3
2017-09-27T14:24:21.018Z,947.2
2017-09-27T14:25:29.125Z,947.2
2017-09-27T14:26:37.357Z,947.2
2017-09-27T14:27:45.350Z,947.2
2017-09-27T14:28:53.384Z,947.2
2017-09-27T14:30:01.558Z,947.1
2017-09-27T14:31:09.568Z,947.1
2017-09-27T14:32:17.764Z,947.2
2017-09-27T14:33:25.791Z,947.1
2017-09-27T14:34:33.818Z,947.1
2017-09-27T14:35:42.020Z,947.1
2017-09-27T14:36:49.992Z,947.1